Time;durP1;ratioP1;P1;durP2;ratioP2;P2;SDS_P1;SDS_P2;PMS_P1;PMS_P2;Temp;Humidity;BMP_temperature;BMP_pressure;BME280_temperature;BME280_humidity;BME280_pressure;Samples;Min_cycle;Max_cycle;Signal;HPM_P1;HPM_P2
2020/12/17 00:00:39;;;;;;;5.70;3.10;;;6.60;99.90;;;;;;5094247;28;20433;-47
2020/12/17 00:03:06;;;;;;;4.68;2.70;;;6.60;99.90;;;;;;5094837;28;20421;-48
2020/12/17 00:05:32;;;;;;;4.07;2.33;;;6.60;99.90;;;;;;5094653;28;20429;-48
2020/12/17 00:07:59;;;;;;;3.92;2.28;;;6.60;99.90;;;;;;5094383;28;20426;-51
2020/12/17 00:10:28;;;;;;;5.18;2.45;;;6.60;99.90;;;;;;5094221;28;20769;-49
2020/12/17 00:12:54;;;;;;;3.38;2.20;;;6.60;99.90;;;;;;5093497;28;20708;-51
2020/12/17 00:15:21;;;;;;;4.68;2.35;;;6.60;99.90;;;;;;5093982;28;20530;-48
2020/12/17 00:17:49;;;;;;;4.30;2.70;;;6.50;99.90;;;;;;5094089;28;20421;-50
2020/12/17 00:20:17;;;;;;;3.17;2.15;;;6.50;99.90;;;;;;5094951;28;20434;-53
2020/12/17 00:22:44;;;;;;;3.57;1.90;;;6.50;99.90;;;;;;5094660;28;20454;-52
2020/12/17 00:25:13;;;;;;;3.63;2.20;;;6.50;99.90;;;;;;5094472;28;20434;-48
2020/12/17 00:27:41;;;;;;;3.63;2.40;;;6.50;99.90;;;;;;5094770;28;20482;-49
2020/12/17 00:30:11;;;;;;;2.97;1.98;;;6.50;99.90;;;;;;5093817;28;20429;-51
2020/12/17 00:32:38;;;;;;;4.00;2.00;;;6.50;99.90;;;;;;5093751;28;20516;-48
2020/12/17 00:35:06;;;;;;;3.08;1.90;;;6.50;99.90;;;;;;5093790;28;20430;-49
2020/12/17 00:37:33;;;;;;;2.85;2.05;;;6.60;99.90;;;;;;5094095;28;20487;-48
2020/12/17 00:40:01;;;;;;;3.90;2.00;;;6.60;99.90;;;;;;5094208;28;20436;-47
2020/12/17 00:42:28;;;;;;;2.58;1.50;;;6.60;99.90;;;;;;5093710;28;20479;-49
2020/12/17 00:44:56;;;;;;;2.67;2.10;;;6.50;99.90;;;;;;5092313;28;20429;-49
2020/12/17 00:47:22;;;;;;;3.95;2.10;;;6.50;99.90;;;;;;5093803;28;20529;-48
2020/12/17 00:49:49;;;;;;;3.25;2.08;;;6.50;99.90;;;;;;5094537;28;20425;-52
2020/12/17 00:52:21;;;;;;;2.72;1.70;;;6.50;99.90;;;;;;5095032;28;20422;-48
2020/12/17 00:54:48;;;;;;;3.38;1.80;;;6.50;99.90;;;;;;5094745;28;20892;-49
2020/12/17 00:57:15;;;;;;;3.75;2.13;;;6.50;99.90;;;;;;5094720;28;20741;-52
2020/12/17 00:59:42;;;;;;;3.30;1.95;;;6.50;99.90;;;;;;5094157;28;20491;-52
2020/12/17 01:02:09;;;;;;;2.40;1.70;;;6.50;99.90;;;;;;5097758;28;20475;-48
2020/12/17 01:04:36;;;;;;;2.22;1.70;;;6.50;99.90;;;;;;5098780;28;20418;-51
2020/12/17 01:07:03;;;;;;;3.50;2.00;;;6.50;99.90;;;;;;5098719;28;20425;-50
2020/12/17 01:09:30;;;;;;;3.47;1.83;;;6.40;99.90;;;;;;5098367;28;20817;-53
2020/12/17 01:11:57;;;;;;;3.40;1.95;;;6.40;99.90;;;;;;5098788;28;20414;-53
2020/12/17 01:14:24;;;;;;;3.17;2.13;;;6.30;99.90;;;;;;5098479;28;20671;-54
2020/12/17 01:16:50;;;;;;;2.83;2.00;;;6.30;99.90;;;;;;5098061;28;20421;-48
2020/12/17 01:19:18;;;;;;;3.80;2.15;;;6.30;99.90;;;;;;5097863;28;20880;-48
2020/12/17 01:21:45;;;;;;;3.70;1.70;;;6.30;99.90;;;;;;5098222;28;20422;-49
2020/12/17 01:24:11;;;;;;;3.92;1.50;;;6.30;99.90;;;;;;5098694;28;20418;-49
2020/12/17 01:26:38;;;;;;;3.88;2.08;;;6.40;99.90;;;;;;5097953;28;20422;-49
2020/12/17 01:29:05;;;;;;;3.97;1.67;;;6.40;99.90;;;;;;5097998;28;20417;-48
2020/12/17 01:31:32;;;;;;;3.15;1.73;;;6.40;99.90;;;;;;5098238;28;20434;-50
2020/12/17 01:33:58;;;;;;;3.92;1.67;;;6.40;99.90;;;;;;5098079;28;20721;-53
2020/12/17 01:36:26;;;;;;;2.80;1.70;;;6.40;99.90;;;;;;5098257;28;20495;-52
2020/12/17 01:38:53;;;;;;;2.97;2.00;;;6.40;99.90;;;;;;5096683;28;20440;-49
2020/12/17 01:41:19;;;;;;;3.08;1.40;;;6.40;99.90;;;;;;5097917;28;20442;-48
2020/12/17 01:43:47;;;;;;;2.90;1.60;;;6.40;99.90;;;;;;5098118;28;20710;-51
2020/12/17 01:46:15;;;;;;;2.78;1.80;;;6.40;99.90;;;;;;5097887;28;20437;-50
2020/12/17 01:48:43;;;;;;;2.30;1.38;;;6.30;99.90;;;;;;5097556;28;20425;-54
2020/12/17 01:51:10;;;;;;;2.05;1.30;;;6.40;99.90;;;;;;5097724;28;20445;-46
2020/12/17 01:53:39;;;;;;;2.50;1.50;;;6.30;99.90;;;;;;5098153;28;20429;-48
2020/12/17 01:56:09;;;;;;;3.20;1.45;;;6.30;99.90;;;;;;5098442;28;20837;-50
2020/12/17 01:58:41;;;;;;;3.30;1.40;;;6.30;99.90;;;;;;5098108;28;20418;-50
2020/12/17 02:01:12;;;;;;;2.65;1.55;;;6.30;99.90;;;;;;5097366;28;20434;-47
2020/12/17 02:03:40;;;;;;;3.22;1.50;;;6.20;99.90;;;;;;5097658;28;20767;-50
2020/12/17 02:06:08;;;;;;;2.70;1.75;;;6.10;99.90;;;;;;5096921;28;20433;-49
2020/12/17 02:08:38;;;;;;;2.47;1.50;;;6.10;99.90;;;;;;5097205;28;20504;-50
2020/12/17 02:11:09;;;;;;;2.25;1.40;;;6.10;99.90;;;;;;5096494;28;20508;-49
2020/12/17 02:13:37;;;;;;;2.53;1.75;;;6.10;99.90;;;;;;5096920;28;20418;-51
2020/12/17 02:16:05;;;;;;;1.80;1.50;;;6.00;99.90;;;;;;5097356;28;20775;-52
2020/12/17 02:18:32;;;;;;;4.47;1.60;;;6.00;99.90;;;;;;5096913;28;20471;-47
2020/12/17 02:20:58;;;;;;;3.30;1.60;;;6.00;99.90;;;;;;5096842;28;20518;-47
2020/12/17 02:23:25;;;;;;;2.00;1.40;;;6.00;99.90;;;;;;5096797;28;20417;-49
2020/12/17 02:25:53;;;;;;;3.40;1.70;;;5.90;99.90;;;;;;5097003;28;20456;-50
2020/12/17 02:28:21;;;;;;;4.40;2.00;;;5.90;99.90;;;;;;5096632;28;20418;-53
2020/12/17 02:30:48;;;;;;;3.80;2.13;;;5.80;99.90;;;;;;5096968;28;20730;-49
2020/12/17 02:33:14;;;;;;;2.33;1.52;;;5.80;99.90;;;;;;5097173;28;20421;-51
2020/12/17 02:35:42;;;;;;;2.80;1.90;;;5.80;99.90;;;;;;5095356;28;20511;-48
2020/12/17 02:38:08;;;;;;;3.13;1.48;;;5.90;99.90;;;;;;5088541;28;20877;-51
2020/12/17 02:40:36;;;;;;;2.45;1.60;;;5.90;99.90;;;;;;5086531;28;20441;-50
2020/12/17 02:43:04;;;;;;;3.45;1.60;;;5.90;99.90;;;;;;5097021;28;20851;-48
2020/12/17 02:45:31;;;;;;;2.70;1.75;;;5.80;99.90;;;;;;5097241;28;20433;-50
2020/12/17 02:47:58;;;;;;;2.20;1.55;;;5.80;99.90;;;;;;5095228;28;20430;-54
2020/12/17 02:50:24;;;;;;;3.30;1.20;;;5.80;99.90;;;;;;5095472;28;20461;-52
2020/12/17 02:52:51;;;;;;;1.80;1.10;;;5.90;99.90;;;;;;5096776;28;20422;-49
2020/12/17 02:55:17;;;;;;;2.65;1.45;;;5.90;99.90;;;;;;5097034;28;20469;-50
2020/12/17 02:57:44;;;;;;;2.90;1.70;;;5.90;99.90;;;;;;5096379;28;20445;-50
2020/12/17 03:00:12;;;;;;;4.63;1.77;;;6.00;99.90;;;;;;5096215;28;20445;-50
2020/12/17 03:02:38;;;;;;;2.55;1.25;;;6.00;99.90;;;;;;5096089;28;20778;-50
2020/12/17 03:05:06;;;;;;;2.90;1.50;;;6.00;99.90;;;;;;5095722;28;20495;-48
2020/12/17 03:07:32;;;;;;;2.53;1.30;;;6.00;99.90;;;;;;5096397;28;20437;-54
2020/12/17 03:09:59;;;;;;;2.88;1.30;;;6.00;99.90;;;;;;5096003;28;20523;-53
2020/12/17 03:12:25;;;;;;;2.13;1.30;;;6.00;99.90;;;;;;5096002;28;20478;-51
2020/12/17 03:14:52;;;;;;;2.33;1.17;;;6.00;99.90;;;;;;5095974;28;20733;-51
2020/12/17 03:17:20;;;;;;;2.35;1.20;;;6.00;99.90;;;;;;5095614;28;20425;-48
2020/12/17 03:19:46;;;;;;;3.85;1.30;;;6.00;99.90;;;;;;5096103;28;20526;-51
2020/12/17 03:22:13;;;;;;;2.60;1.23;;;6.00;99.90;;;;;;5095823;28;20444;-51
2020/12/17 03:24:40;;;;;;;2.10;1.30;;;6.00;99.90;;;;;;5094990;28;20446;-52
2020/12/17 03:27:06;;;;;;;2.45;1.30;;;6.00;99.90;;;;;;5096123;28;20418;-50
2020/12/17 03:29:32;;;;;;;2.78;1.55;;;6.00;99.90;;;;;;5095553;28;20468;-50
2020/12/17 03:31:59;;;;;;;2.15;1.45;;;6.00;99.90;;;;;;5095885;28;20414;-51
2020/12/17 03:34:26;;;;;;;2.70;1.42;;;5.90;99.90;;;;;;5095518;28;20417;-48
2020/12/17 03:36:53;;;;;;;4.50;1.60;;;5.90;99.90;;;;;;5095713;28;20445;-51
2020/12/17 03:39:19;;;;;;;3.83;1.70;;;5.90;99.90;;;;;;5095252;28;20461;-51
2020/12/17 03:41:45;;;;;;;2.70;1.50;;;5.90;99.90;;;;;;5095388;28;20844;-52
2020/12/17 03:44:12;;;;;;;3.30;1.40;;;5.90;99.90;;;;;;5095771;28;20418;-49
2020/12/17 03:46:39;;;;;;;3.30;1.40;;;5.90;99.90;;;;;;5095612;28;20421;-52
2020/12/17 03:49:05;;;;;;;2.20;1.30;;;6.00;99.90;;;;;;5095499;28;20429;-52
2020/12/17 03:51:32;;;;;;;2.80;1.20;;;6.00;99.90;;;;;;5095527;28;20461;-51
2020/12/17 03:53:59;;;;;;;2.80;1.30;;;6.00;99.90;;;;;;5095538;28;20428;-53
2020/12/17 03:56:25;;;;;;;3.72;1.50;;;6.00;99.90;;;;;;5095793;28;20462;-52
2020/12/17 03:58:52;;;;;;;2.55;1.20;;;6.00;99.90;;;;;;5095587;28;20453;-52
2020/12/17 04:01:18;;;;;;;2.30;1.10;;;6.00;99.90;;;;;;5095165;28;20438;-51
2020/12/17 04:03:45;;;;;;;3.10;1.45;;;6.00;99.90;;;;;;5095058;28;20418;-52
2020/12/17 04:06:11;;;;;;;2.70;1.20;;;6.00;99.90;;;;;;5095139;28;20487;-52
2020/12/17 04:08:42;;;;;;;2.53;1.13;;;6.00;99.90;;;;;;5095028;28;20479;-52
2020/12/17 04:11:09;;;;;;;2.58;1.60;;;6.00;99.90;;;;;;5095452;28;20474;-52
2020/12/17 04:13:35;;;;;;;3.60;1.30;;;5.90;99.90;;;;;;5095131;28;20418;-52
2020/12/17 04:16:02;;;;;;;2.30;1.40;;;5.90;99.90;;;;;;5095315;28;20479;-55
2020/12/17 04:18:29;;;;;;;3.70;1.35;;;5.80;99.90;;;;;;5094914;28;20884;-51
2020/12/17 04:20:55;;;;;;;2.40;1.40;;;5.80;99.90;;;;;;5094729;28;20522;-50
2020/12/17 04:23:22;;;;;;;2.22;1.50;;;5.70;99.90;;;;;;5094212;28;20757;-52
2020/12/17 04:25:50;;;;;;;2.80;1.50;;;5.70;99.90;;;;;;5094122;28;20430;-50
2020/12/17 04:28:16;;;;;;;2.88;2.00;;;5.70;99.90;;;;;;5094308;28;20444;-53
2020/12/17 04:30:42;;;;;;;3.10;1.70;;;5.70;99.90;;;;;;5094118;28;20484;-54
2020/12/17 04:33:09;;;;;;;2.90;1.67;;;5.70;99.90;;;;;;5093768;28;20414;-48
2020/12/17 04:35:35;;;;;;;2.90;1.70;;;5.70;99.90;;;;;;5096444;28;20508;-52
2020/12/17 04:38:02;;;;;;;4.10;2.00;;;5.70;99.90;;;;;;5098826;28;20456;-52
2020/12/17 04:40:29;;;;;;;3.40;1.60;;;5.70;99.90;;;;;;5098839;28;20434;-52
2020/12/17 04:42:57;;;;;;;2.40;1.80;;;5.70;99.90;;;;;;5098932;28;20780;-51
2020/12/17 04:45:24;;;;;;;3.67;1.77;;;5.70;99.90;;;;;;5098912;28;20926;-49
2020/12/17 04:47:53;;;;;;;3.70;1.80;;;5.70;99.90;;;;;;5098952;28;20464;-51
2020/12/17 04:50:24;;;;;;;2.50;1.57;;;5.70;99.90;;;;;;5098780;28;20502;-51
2020/12/17 04:52:53;;;;;;;2.70;1.90;;;5.70;99.90;;;;;;5098408;28;20418;-48
2020/12/17 04:55:24;;;;;;;2.80;1.70;;;5.70;99.90;;;;;;5098857;28;20461;-49
2020/12/17 04:57:52;;;;;;;2.30;1.63;;;5.60;99.90;;;;;;5097751;28;20445;-49
2020/12/17 05:00:19;;;;;;;3.13;1.80;;;5.60;99.90;;;;;;5097771;28;20789;-47
2020/12/17 05:02:47;;;;;;;3.90;2.30;;;5.60;99.90;;;;;;5097637;28;20852;-50
2020/12/17 05:05:14;;;;;;;2.92;1.60;;;5.60;99.90;;;;;;5098585;28;20721;-48
2020/12/17 05:07:41;;;;;;;3.47;1.90;;;5.60;99.90;;;;;;5098471;28;20750;-51
2020/12/17 05:10:09;;;;;;;4.22;2.00;;;5.60;99.90;;;;;;5098325;28;20428;-50
2020/12/17 05:12:35;;;;;;;4.35;2.05;;;5.60;99.90;;;;;;5098100;28;20422;-50
2020/12/17 05:15:02;;;;;;;3.10;1.60;;;5.60;99.90;;;;;;5097993;28;20430;-51
2020/12/17 05:17:31;;;;;;;4.40;2.40;;;5.60;99.90;;;;;;5097874;28;20421;-48
2020/12/17 05:19:58;;;;;;;3.00;1.60;;;5.60;99.90;;;;;;5097850;28;20476;-47
2020/12/17 05:22:25;;;;;;;2.85;1.70;;;5.50;99.90;;;;;;5097737;28;20417;-50
2020/12/17 05:24:52;;;;;;;4.10;2.00;;;5.50;99.90;;;;;;5097871;28;20457;-48
2020/12/17 05:27:23;;;;;;;4.03;2.00;;;5.40;99.90;;;;;;5097933;28;20775;-51
2020/12/17 05:29:52;;;;;;;2.67;1.90;;;5.40;99.90;;;;;;5097108;28;20730;-51
2020/12/17 05:32:20;;;;;;;4.05;1.80;;;5.40;99.90;;;;;;5097825;28;20449;-52
2020/12/17 05:34:50;;;;;;;3.58;1.83;;;5.40;99.90;;;;;;5098197;28;20495;-51
2020/12/17 05:37:19;;;;;;;3.30;1.60;;;5.40;99.90;;;;;;5098033;28;20504;-48
2020/12/17 05:39:46;;;;;;;3.70;2.00;;;5.40;99.90;;;;;;5097697;28;20725;-49
2020/12/17 05:42:13;;;;;;;2.42;1.70;;;5.40;99.90;;;;;;5097488;28;20475;-52
2020/12/17 05:44:40;;;;;;;3.80;2.08;;;5.30;99.90;;;;;;5097734;28;20482;-53
2020/12/17 05:47:11;;;;;;;3.22;1.77;;;5.30;99.90;;;;;;5096882;28;20428;-51
2020/12/17 05:49:38;;;;;;;2.95;1.63;;;5.30;99.90;;;;;;5097435;28;20467;-52
2020/12/17 05:52:11;;;;;;;3.92;1.75;;;5.30;99.90;;;;;;5097669;28;20913;-51
2020/12/17 05:54:42;;;;;;;5.10;2.08;;;5.30;99.90;;;;;;5097244;28;20853;-49
2020/12/17 05:57:10;;;;;;;3.90;2.43;;;5.20;99.90;;;;;;5097612;28;20499;-49
2020/12/17 05:59:36;;;;;;;3.53;1.70;;;5.20;99.90;;;;;;5097107;28;20756;-48
2020/12/17 06:02:22;;;;;;;3.58;2.13;;;5.20;99.90;;;;;;5096303;28;20454;-48
2020/12/17 06:05:05;;;;;;;4.78;1.80;;;5.30;99.90;;;;;;5094468;28;20426;-50
2020/12/17 06:07:47;;;;;;;3.00;1.70;;;5.30;99.90;;;;;;5095651;28;20425;-53
2020/12/17 06:10:17;;;;;;;3.65;1.88;;;5.30;99.90;;;;;;5095813;28;20829;-48
2020/12/17 06:12:45;;;;;;;2.50;1.50;;;5.30;99.90;;;;;;5096138;28;20422;-53
2020/12/17 06:15:16;;;;;;;3.38;1.80;;;5.40;99.90;;;;;;5094924;28;20457;-51
2020/12/17 06:17:48;;;;;;;3.28;1.70;;;5.40;99.90;;;;;;5095527;28;20418;-48
2020/12/17 06:20:15;;;;;;;3.90;1.60;;;5.40;99.90;;;;;;5096094;28;20872;-51
2020/12/17 06:22:50;;;;;;;2.80;1.52;;;5.40;99.90;;;;;;5096206;28;20829;-48
2020/12/17 06:25:17;;;;;;;3.13;1.52;;;5.40;99.90;;;;;;5095118;28;20928;-48
2020/12/17 06:27:47;;;;;;;3.75;2.20;;;5.40;99.90;;;;;;5096243;28;20441;-52
2020/12/17 06:30:27;;;;;;;3.42;1.50;;;5.40;99.90;;;;;;5095234;28;20426;-52
2020/12/17 06:33:01;;;;;;;3.58;1.70;;;5.40;99.90;;;;;;5084974;28;20583;-52
2020/12/17 06:35:50;;;;;;;3.40;1.70;;;5.30;99.90;;;;;;5093632;28;20434;-50
2020/12/17 06:38:22;;;;;;;2.80;1.90;;;5.30;99.90;;;;;;5093218;28;20453;-53
2020/12/17 06:40:48;;;;;;;2.70;1.40;;;5.30;99.90;;;;;;5093903;28;20473;-48
2020/12/17 06:43:30;;;;;;;2.80;1.40;;;5.30;99.90;;;;;;5094894;28;20899;-49
2020/12/17 06:45:57;;;;;;;3.00;1.40;;;5.30;99.90;;;;;;5095385;28;20535;-51
2020/12/17 06:48:32;;;;;;;3.45;1.30;;;5.30;99.90;;;;;;5094306;28;20432;-48
2020/12/17 06:50:59;;;;;;;2.60;1.20;;;5.30;99.90;;;;;;5095318;28;20453;-52
2020/12/17 06:53:39;;;;;;;2.08;1.10;;;5.40;99.90;;;;;;5093536;28;20475;-48
2020/12/17 06:56:05;;;;;;;2.40;1.15;;;5.40;99.90;;;;;;5088353;28;20434;-52
2020/12/17 06:58:32;;;;;;;2.05;1.00;;;5.50;99.90;;;;;;5087260;28;20787;-54
2020/12/17 07:00:58;;;;;;;1.40;1.00;;;5.50;99.90;;;;;;5093079;28;20434;-55
2020/12/17 07:03:47;;;;;;;1.90;0.95;;;5.60;99.90;;;;;;5089108;28;20414;-55
2020/12/17 07:06:20;;;;;;;1.80;0.90;;;5.60;99.90;;;;;;5111189;28;20424;-51
2020/12/17 07:08:49;;;;;;;1.67;0.80;;;5.70;99.90;;;;;;5095273;28;20422;-50
2020/12/17 07:11:43;;;;;;;1.50;0.90;;;5.70;99.90;;;;;;5093539;28;20429;-52
2020/12/17 07:14:17;;;;;;;1.52;0.90;;;5.80;99.90;;;;;;5046772;28;20430;-51
2020/12/17 07:16:50;;;;;;;1.40;0.90;;;5.80;99.90;;;;;;5093300;28;20421;-49
2020/12/17 07:19:25;;;;;;;1.25;0.80;;;5.90;99.90;;;;;;5093982;28;20436;-51
2020/12/17 07:22:03;;;;;;;2.60;0.80;;;5.90;99.90;;;;;;5092189;28;20798;-48
2020/12/17 07:24:33;;;;;;;1.15;0.70;;;5.90;99.90;;;;;;5093440;28;20923;-52
2020/12/17 07:27:01;;;;;;;1.50;0.80;;;5.90;99.90;;;;;;5093320;28;20492;-48
2020/12/17 07:29:40;;;;;;;1.90;0.70;;;5.90;99.90;;;;;;5093550;28;20817;-51
2020/12/17 07:32:38;;;;;;;2.10;0.75;;;6.00;99.90;;;;;;5088507;28;20425;-50
2020/12/17 07:35:18;;;;;;;1.13;0.80;;;6.00;99.90;;;;;;5029622;28;20430;-51
2020/12/17 07:37:47;;;;;;;1.60;0.70;;;6.00;99.90;;;;;;5085157;28;20477;-51
2020/12/17 07:40:26;;;;;;;2.00;0.70;;;6.00;99.90;;;;;;5086789;28;20795;-52
2020/12/17 07:43:04;;;;;;;1.60;0.80;;;6.00;99.90;;;;;;5082639;28;20457;-50
2020/12/17 07:45:41;;;;;;;1.30;0.70;;;6.00;99.90;;;;;;5094319;28;20737;-50
2020/12/17 07:48:42;;;;;;;1.20;0.60;;;6.10;99.90;;;;;;5092442;28;20494;-50
2020/12/17 07:51:43;;;;;;;0.90;0.60;;;6.20;99.90;;;;;;5030482;28;20422;-48
2020/12/17 07:54:09;;;;;;;0.90;0.60;;;6.20;99.90;;;;;;4970103;28;20439;-49
2020/12/17 07:56:37;;;;;;;0.85;0.60;;;6.30;99.90;;;;;;5010727;28;20454;-52
2020/12/17 07:59:06;;;;;;;0.80;0.50;;;6.40;99.90;;;;;;5055393;28;20417;-56
2020/12/17 08:01:33;;;;;;;1.00;0.50;;;6.40;99.90;;;;;;5090596;28;20433;-52
2020/12/17 08:03:59;;;;;;;1.20;0.60;;;6.50;99.90;;;;;;5090684;28;20511;-51
2020/12/17 08:06:28;;;;;;;0.80;0.50;;;6.50;99.90;;;;;;5091946;28;20493;-51
2020/12/17 08:08:56;;;;;;;1.10;0.50;;;6.50;99.90;;;;;;5092440;28;20849;-54
2020/12/17 08:11:25;;;;;;;0.90;0.50;;;6.60;99.90;;;;;;5092467;28;20457;-50
2020/12/17 08:14:00;;;;;;;0.90;0.50;;;6.60;99.90;;;;;;5090938;28;20579;-50
2020/12/17 08:16:26;;;;;;;0.90;0.50;;;6.60;99.90;;;;;;5070520;28;20520;-51
2020/12/17 08:18:57;;;;;;;0.90;0.60;;;6.60;99.90;;;;;;5077296;28;20479;-50
2020/12/17 08:21:26;;;;;;;1.20;0.60;;;6.60;99.90;;;;;;5091131;28;20865;-53
2020/12/17 08:23:53;;;;;;;0.80;0.50;;;6.60;99.90;;;;;;5092706;28;20453;-52
2020/12/17 08:26:21;;;;;;;1.17;0.60;;;6.60;99.90;;;;;;5091660;28;20490;-50
2020/12/17 08:28:49;;;;;;;1.00;0.60;;;6.60;99.90;;;;;;5097929;28;20426;-51
2020/12/17 08:31:18;;;;;;;1.25;0.70;;;6.60;99.90;;;;;;5109528;28;20680;-53
2020/12/17 08:33:46;;;;;;;1.27;0.60;;;6.60;99.90;;;;;;5087103;28;20457;-51
2020/12/17 08:36:15;;;;;;;1.60;0.70;;;6.60;99.90;;;;;;5091245;28;20465;-55
2020/12/17 08:38:52;;;;;;;0.88;0.60;;;6.60;99.90;;;;;;5092049;28;20430;-53
2020/12/17 08:41:20;;;;;;;1.27;0.50;;;6.60;99.90;;;;;;5089929;28;20425;-49
2020/12/17 08:43:49;;;;;;;1.00;0.60;;;6.70;99.90;;;;;;5089194;28;20425;-55
2020/12/17 08:46:17;;;;;;;1.20;0.50;;;6.70;99.90;;;;;;5091006;28;20491;-53
2020/12/17 08:48:46;;;;;;;1.30;0.50;;;6.80;99.90;;;;;;5091493;28;20479;-52
2020/12/17 08:51:16;;;;;;;1.00;0.60;;;6.80;99.90;;;;;;5089686;28;20422;-53
2020/12/17 08:53:46;;;;;;;1.70;0.50;;;6.80;99.90;;;;;;5089259;28;20910;-55
2020/12/17 08:56:15;;;;;;;0.80;0.50;;;6.80;99.90;;;;;;5087850;28;20755;-55
2020/12/17 08:58:53;;;;;;;1.30;0.60;;;6.80;99.90;;;;;;5092246;28;20776;-53
2020/12/17 09:01:24;;;;;;;1.00;0.57;;;6.80;99.90;;;;;;5101002;28;20463;-50
2020/12/17 09:03:52;;;;;;;1.10;0.70;;;6.80;99.90;;;;;;5095077;28;20426;-54
2020/12/17 09:06:24;;;;;;;1.92;0.70;;;6.90;99.90;;;;;;5083928;28;20429;-53
2020/12/17 09:08:51;;;;;;;0.70;0.50;;;6.80;99.90;;;;;;5091505;28;20969;-50
2020/12/17 09:11:34;;;;;;;1.20;0.70;;;6.90;99.90;;;;;;5091202;28;20496;-53
2020/12/17 09:14:03;;;;;;;0.90;0.52;;;6.90;99.90;;;;;;5089168;28;20422;-53
2020/12/17 09:16:31;;;;;;;1.30;0.60;;;6.90;99.90;;;;;;5090147;28;20422;-55
2020/12/17 09:18:59;;;;;;;1.20;0.70;;;7.00;99.90;;;;;;5089941;28;20505;-53
2020/12/17 09:21:26;;;;;;;1.08;0.70;;;7.00;99.90;;;;;;5088613;28;20787;-56
2020/12/17 09:23:58;;;;;;;1.25;0.60;;;7.00;99.90;;;;;;5093929;28;20422;-51
2020/12/17 09:26:25;;;;;;;1.30;0.60;;;7.00;99.90;;;;;;5094249;28;20488;-52
2020/12/17 09:28:54;;;;;;;1.10;0.70;;;7.00;99.90;;;;;;5092718;28;20422;-50
2020/12/17 09:31:33;;;;;;;1.00;0.60;;;7.00;99.90;;;;;;5095665;28;20525;-54
2020/12/17 09:34:08;;;;;;;1.30;0.70;;;7.00;99.90;;;;;;5106053;28;20417;-55
2020/12/17 09:36:35;;;;;;;1.00;0.60;;;7.00;99.90;;;;;;5093392;28;20887;-52
2020/12/17 09:39:05;;;;;;;1.17;0.70;;;7.00;99.90;;;;;;5109369;28;20465;-55
2020/12/17 09:41:32;;;;;;;1.23;0.73;;;7.00;99.90;;;;;;5094542;28;20495;-52
2020/12/17 09:43:59;;;;;;;0.90;0.60;;;7.00;99.90;;;;;;5094088;28;20761;-54
2020/12/17 09:46:25;;;;;;;1.70;0.60;;;7.00;99.90;;;;;;5094472;28;20717;-55
2020/12/17 09:48:53;;;;;;;1.10;0.70;;;7.00;99.90;;;;;;5094514;28;20860;-54
2020/12/17 09:51:22;;;;;;;1.02;0.60;;;7.10;99.90;;;;;;5110990;28;20525;-49
2020/12/17 09:54:01;;;;;;;1.00;0.70;;;7.10;99.90;;;;;;5093501;28;20418;-54
2020/12/17 09:56:28;;;;;;;1.25;0.75;;;7.20;99.90;;;;;;5091699;28;20521;-53
2020/12/17 09:58:54;;;;;;;1.10;0.70;;;7.30;99.90;;;;;;5083997;28;20419;-53
2020/12/17 10:01:22;;;;;;;1.27;0.80;;;7.40;99.90;;;;;;5087084;28;20433;-53
2020/12/17 10:03:48;;;;;;;1.13;0.70;;;7.50;99.90;;;;;;5099539;28;20435;-54
2020/12/17 10:06:16;;;;;;;0.90;0.60;;;7.60;99.90;;;;;;5094411;28;20774;-52
2020/12/17 10:08:42;;;;;;;1.20;0.60;;;7.90;99.90;;;;;;5092574;28;20421;-52
2020/12/17 10:11:09;;;;;;;2.00;0.80;;;8.10;99.90;;;;;;5093649;28;20422;-53
2020/12/17 10:13:36;;;;;;;1.30;0.60;;;8.30;99.90;;;;;;5093395;28;20422;-53
2020/12/17 10:16:03;;;;;;;1.60;0.80;;;8.30;99.90;;;;;;5093166;28;20433;-55
2020/12/17 10:18:30;;;;;;;1.23;0.70;;;8.30;99.90;;;;;;5093619;28;20425;-53
2020/12/17 10:20:56;;;;;;;1.08;0.60;;;8.40;99.90;;;;;;5080026;28;20570;-50
2020/12/17 10:23:23;;;;;;;1.10;0.80;;;8.40;99.90;;;;;;5072915;28;20543;-50
2020/12/17 10:25:50;;;;;;;1.50;0.80;;;8.50;99.90;;;;;;5086990;28;20469;-52
2020/12/17 10:28:17;;;;;;;2.00;0.70;;;8.50;99.90;;;;;;5089727;28;20751;-54
2020/12/17 10:30:43;;;;;;;1.10;0.70;;;8.40;99.90;;;;;;5093823;28;20498;-55
2020/12/17 10:33:10;;;;;;;1.40;0.70;;;8.50;99.90;;;;;;5092640;28;20480;-52
2020/12/17 10:35:36;;;;;;;1.40;0.70;;;8.50;99.90;;;;;;5093266;28;20433;-49
2020/12/17 10:38:03;;;;;;;1.20;0.70;;;8.50;99.90;;;;;;5092780;28;20449;-55
2020/12/17 10:40:30;;;;;;;1.10;0.60;;;8.50;99.90;;;;;;5093511;28;20951;-54
2020/12/17 10:42:56;;;;;;;1.60;0.60;;;8.60;99.90;;;;;;5094796;28;20413;-51
2020/12/17 10:45:23;;;;;;;1.25;0.70;;;8.70;99.90;;;;;;5092203;28;20788;-50
2020/12/17 10:47:49;;;;;;;1.63;0.82;;;8.70;99.90;;;;;;5093878;28;20425;-53
2020/12/17 10:50:16;;;;;;;0.90;0.63;;;8.80;99.90;;;;;;5092545;28;20852;-53
2020/12/17 10:52:45;;;;;;;1.50;0.70;;;8.90;99.90;;;;;;5094299;28;20454;-50
2020/12/17 10:55:11;;;;;;;0.90;0.63;;;9.00;99.90;;;;;;5094728;28;20877;-54
2020/12/17 10:57:39;;;;;;;1.02;0.60;;;9.10;99.90;;;;;;5092988;28;20440;-54
2020/12/17 11:00:06;;;;;;;0.80;0.60;;;9.20;99.90;;;;;;5091610;28;20429;-54
2020/12/17 11:02:32;;;;;;;0.90;0.60;;;9.40;99.90;;;;;;5093499;28;20430;-55
2020/12/17 11:04:59;;;;;;;2.20;0.60;;;9.50;99.90;;;;;;5093355;28;20430;-51
2020/12/17 11:07:26;;;;;;;1.00;0.60;;;9.70;99.90;;;;;;5093074;28;20426;-56
2020/12/17 11:09:52;;;;;;;1.05;0.70;;;9.80;99.90;;;;;;5093517;28;21002;-56
2020/12/17 11:12:19;;;;;;;0.80;0.60;;;9.90;99.90;;;;;;5092432;28;20413;-56
2020/12/17 11:14:46;;;;;;;1.03;0.50;;;10.00;99.90;;;;;;5087425;28;20536;-56
2020/12/17 11:17:13;;;;;;;0.70;0.50;;;10.10;99.90;;;;;;5091120;28;20429;-56
2020/12/17 11:19:40;;;;;;;1.05;0.50;;;10.00;99.90;;;;;;5092691;28;20958;-57
2020/12/17 11:22:06;;;;;;;1.10;0.50;;;10.00;99.90;;;;;;5089062;28;20534;-55
2020/12/17 11:24:33;;;;;;;1.15;0.63;;;10.10;99.90;;;;;;5091947;28;20422;-55
2020/12/17 11:26:59;;;;;;;1.40;0.60;;;10.00;99.90;;;;;;5091639;28;20421;-55
2020/12/17 11:29:26;;;;;;;1.10;0.70;;;10.00;99.90;;;;;;5092228;28;20476;-56
2020/12/17 11:31:53;;;;;;;0.98;0.60;;;10.10;99.90;;;;;;5087602;28;20414;-56
2020/12/17 11:34:20;;;;;;;1.80;0.50;;;10.10;99.90;;;;;;5090755;28;20480;-53
2020/12/17 11:36:46;;;;;;;1.40;0.60;;;10.10;99.90;;;;;;5090231;28;20418;-53
2020/12/17 11:39:14;;;;;;;1.30;0.70;;;10.10;99.90;;;;;;5090712;28;20461;-56
2020/12/17 11:41:40;;;;;;;1.13;0.60;;;10.00;99.90;;;;;;5092144;28;20430;-56
2020/12/17 11:44:07;;;;;;;1.00;0.50;;;10.00;99.90;;;;;;5091667;28;20433;-56
2020/12/17 11:46:34;;;;;;;0.90;0.60;;;10.00;99.90;;;;;;5092278;28;20430;-55
2020/12/17 11:49:01;;;;;;;1.15;0.60;;;10.10;99.90;;;;;;5089566;28;20487;-55
2020/12/17 11:51:28;;;;;;;1.08;0.65;;;10.20;99.90;;;;;;5092503;28;20433;-55
2020/12/17 11:53:55;;;;;;;0.80;0.50;;;10.30;99.90;;;;;;5091419;28;20761;-56
2020/12/17 11:56:21;;;;;;;1.20;0.70;;;10.50;99.90;;;;;;5092841;28;20733;-56
2020/12/17 11:58:48;;;;;;;0.90;0.50;;;10.70;99.90;;;;;;5093802;28;20428;-56
2020/12/17 12:01:14;;;;;;;0.80;0.50;;;10.80;99.90;;;;;;5092601;28;21048;-54
2020/12/17 12:03:41;;;;;;;2.30;0.60;;;10.70;99.90;;;;;;5091757;28;20471;-53
2020/12/17 12:06:08;;;;;;;1.00;0.70;;;10.70;99.90;;;;;;5092187;28;20473;-53
2020/12/17 12:08:35;;;;;;;1.75;0.55;;;10.60;99.90;;;;;;5093387;28;20515;-51
2020/12/17 12:11:01;;;;;;;2.22;0.70;;;10.60;99.90;;;;;;5087638;28;20467;-51
2020/12/17 12:13:28;;;;;;;1.10;0.60;;;10.60;99.90;;;;;;5092099;28;20433;-55
2020/12/17 12:15:54;;;;;;;1.30;0.70;;;10.60;99.90;;;;;;5091584;28;20457;-54
2020/12/17 12:18:21;;;;;;;0.93;0.60;;;10.70;99.90;;;;;;5092721;28;20728;-55
2020/12/17 12:20:47;;;;;;;1.10;0.60;;;10.70;99.90;;;;;;5091126;28;21039;-54
2020/12/17 12:23:16;;;;;;;1.00;0.60;;;10.60;99.90;;;;;;5090360;28;20418;-56
2020/12/17 12:25:43;;;;;;;1.00;0.60;;;10.50;99.90;;;;;;5090712;28;20440;-56
2020/12/17 12:28:09;;;;;;;2.00;0.70;;;10.50;99.90;;;;;;5092046;28;20441;-56
2020/12/17 12:30:36;;;;;;;0.90;0.60;;;10.60;99.90;;;;;;5090165;28;20813;-54
2020/12/17 12:33:03;;;;;;;1.48;0.70;;;10.70;99.90;;;;;;5092262;28;20414;-56
2020/12/17 12:35:29;;;;;;;0.90;0.60;;;10.80;99.90;;;;;;5091074;28;20425;-55
2020/12/17 12:37:56;;;;;;;1.75;0.70;;;10.80;99.90;;;;;;5093093;28;20451;-57
2020/12/17 12:40:23;;;;;;;0.85;0.60;;;10.90;99.90;;;;;;5091639;28;20434;-54
2020/12/17 12:42:50;;;;;;;0.90;0.50;;;10.90;99.90;;;;;;5092833;28;20425;-56
2020/12/17 12:45:16;;;;;;;1.00;0.70;;;10.90;99.90;;;;;;5091611;28;20844;-55
2020/12/17 12:47:43;;;;;;;1.70;0.80;;;10.90;99.90;;;;;;5081321;28;20811;-53
2020/12/17 12:50:09;;;;;;;1.27;0.70;;;10.90;99.90;;;;;;5091089;28;20453;-53
2020/12/17 12:52:36;;;;;;;1.40;0.90;;;10.80;99.90;;;;;;5091999;28;20977;-57
2020/12/17 12:55:03;;;;;;;4.38;0.80;;;10.80;99.90;;;;;;5089617;28;20542;-54
2020/12/17 12:57:30;;;;;;;2.00;0.90;;;10.70;99.90;;;;;;5095107;28;20457;-56
2020/12/17 12:59:57;;;;;;;1.63;0.68;;;10.80;99.90;;;;;;5096954;28;20592;-57
2020/12/17 13:02:23;;;;;;;2.50;0.80;;;10.90;99.90;;;;;;5095350;28;20461;-57